Time;durP1;ratioP1;P1;durP2;ratioP2;P2;SDS_P1;SDS_P2;PMS_P1;PMS_P2;Temp;Humidity;BMP_temperature;BMP_pressure;BME280_temperature;BME280_humidity;BME280_pressure;Samples;Min_cycle;Max_cycle;Signal;HPM_P1;HPM_P2
2023/03/30 00:01:04;;;;;;;11.88;6.75;;;;;;;;;;6307999;22;20429;-60
2023/03/30 00:03:32;;;;;;;8.25;5.75;;;;;;;;;;6307430;22;20023;-60
2023/03/30 00:06:03;;;;;;;10.00;6.22;;;;;;;;;;6307417;22;20042;-60
2023/03/30 00:08:32;;;;;;;10.45;6.43;;;;;;;;;;6307642;22;20094;-60
2023/03/30 00:11:00;;;;;;;10.00;5.93;;;;;;;;;;6307713;22;20015;-60
2023/03/30 00:13:28;;;;;;;9.05;6.05;;;;;;;;;;6307557;22;20042;-61
2023/03/30 00:15:55;;;;;;;8.38;6.00;;;;;;;;;;6307413;22;20051;-60
2023/03/30 00:18:23;;;;;;;12.45;6.75;;;;;;;;;;6307482;22;20012;-59
2023/03/30 00:20:52;;;;;;;13.15;7.35;;;;;;;;;;6307817;22;20098;-60
2023/03/30 00:23:20;;;;;;;12.45;6.85;;;;;;;;;;6307594;22;20031;-61
2023/03/30 00:25:47;;;;;;;12.05;7.10;;;;;;;;;;6307415;22;20061;-60
2023/03/30 00:28:15;;;;;;;9.95;6.68;;;;;;;;;;6307575;22;20011;-60
2023/03/30 00:30:42;;;;;;;10.50;7.18;;;;;;;;;;6279967;22;20023;-61
2023/03/30 00:33:10;;;;;;;13.18;7.55;;;;;;;;;;6307447;22;20098;-61
2023/03/30 00:35:37;;;;;;;13.98;7.85;;;;;;;;;;6307131;22;20023;-60
2023/03/30 00:38:05;;;;;;;13.50;7.80;;;;;;;;;;6307224;22;20019;-60
2023/03/30 00:40:34;;;;;;;12.40;8.05;;;;;;;;;;6279477;22;20030;-60
2023/03/30 00:43:02;;;;;;;13.32;8.13;;;;;;;;;;6307259;22;20016;-60
2023/03/30 00:45:29;;;;;;;14.75;8.20;;;;;;;;;;6280077;22;20023;-60
2023/03/30 00:48:03;;;;;;;14.60;9.05;;;;;;;;;;6279664;22;20319;-60
2023/03/30 00:50:42;;;;;;;19.52;9.43;;;;;;;;;;6279727;22;20102;-60
2023/03/30 00:53:40;;;;;;;17.48;9.85;;;;;;;;;;6279605;22;20030;-60
2023/03/30 00:56:09;;;;;;;17.98;11.90;;;;;;;;;;6252265;22;20039;-59
2023/03/30 00:58:37;;;;;;;20.65;12.88;;;;;;;;;;6279561;22;20026;-60
2023/03/30 01:01:07;;;;;;;16.80;10.10;;;;;;;;;;6306925;22;20011;-60
2023/03/30 01:03:38;;;;;;;16.10;8.98;;;;;;;;;;6279634;22;20050;-59
2023/03/30 01:06:06;;;;;;;18.23;9.73;;;;;;;;;;6279681;22;20026;-61
2023/03/30 01:08:34;;;;;;;14.57;9.43;;;;;;;;;;6279585;22;20069;-60
2023/03/30 01:11:02;;;;;;;19.75;9.77;;;;;;;;;;6306854;22;20015;-60
2023/03/30 01:13:32;;;;;;;16.48;8.55;;;;;;;;;;6279351;22;20015;-61
2023/03/30 01:16:05;;;;;;;17.08;7.88;;;;;;;;;;6307129;22;20317;-61
2023/03/30 01:18:39;;;;;;;11.93;7.63;;;;;;;;;;6280097;22;20452;-60
2023/03/30 01:21:26;;;;;;;14.63;8.55;;;;;;;;;;6279739;22;20019;-60
2023/03/30 01:24:14;;;;;;;15.60;8.82;;;;;;;;;;6306981;22;20084;-61
2023/03/30 01:26:46;;;;;;;15.30;8.50;;;;;;;;;;6254188;22;20094;-61
2023/03/30 01:29:13;;;;;;;15.07;8.35;;;;;;;;;;6279561;22;20106;-61
2023/03/30 01:31:45;;;;;;;15.02;8.93;;;;;;;;;;6279330;22;20348;-60
2023/03/30 01:34:13;;;;;;;14.07;8.32;;;;;;;;;;6279450;22;20391;-61
2023/03/30 01:36:58;;;;;;;13.95;8.00;;;;;;;;;;6279467;22;20026;-60
2023/03/30 01:39:43;;;;;;;14.60;8.20;;;;;;;;;;6279410;22;20098;-60
2023/03/30 01:42:15;;;;;;;13.82;7.75;;;;;;;;;;6279526;22;20515;-59
2023/03/30 01:44:49;;;;;;;13.23;7.93;;;;;;;;;;6306765;22;20098;-61
2023/03/30 01:47:17;;;;;;;11.85;7.38;;;;;;;;;;6279392;22;20065;-59
2023/03/30 01:49:47;;;;;;;14.13;7.38;;;;;;;;;;6279456;22;20092;-60
2023/03/30 01:52:15;;;;;;;16.30;7.47;;;;;;;;;;6279301;22;20349;-60
2023/03/30 01:54:56;;;;;;;14.52;7.80;;;;;;;;;;6279658;22;20038;-60
2023/03/30 01:57:30;;;;;;;13.77;7.13;;;;;;;;;;6306688;22;20015;-60
2023/03/30 02:00:00;;;;;;;15.82;8.35;;;;;;;;;;6280494;22;20050;-60
2023/03/30 02:02:29;;;;;;;13.80;8.25;;;;;;;;;;6281572;22;20023;-60
2023/03/30 02:05:03;;;;;;;13.90;7.90;;;;;;;;;;6281398;22;20077;-60
2023/03/30 02:07:32;;;;;;;15.05;8.85;;;;;;;;;;6282007;22;20098;-60
2023/03/30 02:10:05;;;;;;;17.48;9.60;;;;;;;;;;6281523;22;20036;-60
2023/03/30 02:12:33;;;;;;;19.27;10.25;;;;;;;;;;6281261;22;20065;-59
2023/03/30 02:15:03;;;;;;;18.42;10.43;;;;;;;;;;6281299;22;20015;-59
2023/03/30 02:17:31;;;;;;;17.27;9.70;;;;;;;;;;6281097;22;20456;-60
2023/03/30 02:19:59;;;;;;;16.77;9.02;;;;;;;;;;6281210;22;20016;-59
2023/03/30 02:22:28;;;;;;;15.70;8.88;;;;;;;;;;6281468;22;20450;-61
2023/03/30 02:24:57;;;;;;;16.90;8.90;;;;;;;;;;6281116;22;20020;-59
2023/03/30 02:27:25;;;;;;;17.83;9.35;;;;;;;;;;6281191;22;20019;-60
2023/03/30 02:29:55;;;;;;;26.13;14.18;;;;;;;;;;6281076;22;20073;-60
2023/03/30 02:32:23;;;;;;;28.95;15.50;;;;;;;;;;6308703;22;20341;-59
2023/03/30 02:35:09;;;;;;;32.33;17.67;;;;;;;;;;6281078;22;20082;-60
2023/03/30 02:37:52;;;;;;;39.28;21.95;;;;;;;;;;6281011;22;20026;-60
2023/03/30 02:40:52;;;;;;;39.63;20.65;;;;;;;;;;6281425;22;20016;-60
2023/03/30 02:43:38;;;;;;;34.50;20.52;;;;;;;;;;6215954;22;20388;-60
2023/03/30 02:46:34;;;;;;;34.03;18.92;;;;;;;;;;6280945;22;20015;-60
2023/03/30 02:49:15;;;;;;;27.80;14.82;;;;;;;;;;6276732;22;20394;-59
2023/03/30 02:52:13;;;;;;;37.35;19.88;;;;;;;;;;6280691;22;20106;-60
2023/03/30 02:54:54;;;;;;;38.00;22.77;;;;;;;;;;6280947;22;20015;-60
2023/03/30 02:58:06;;;;;;;48.35;25.65;;;;;;;;;;6183517;23;20040;-60
2023/03/30 03:01:00;;;;;;;59.58;33.45;;;;;;;;;;6307047;22;20341;-60
2023/03/30 03:03:46;;;;;;;57.08;31.48;;;;;;;;;;6280792;22;20131;-60
2023/03/30 03:06:15;;;;;;;56.03;32.00;;;;;;;;;;6281186;22;20450;-60
2023/03/30 03:08:48;;;;;;;61.45;33.40;;;;;;;;;;6280880;22;20023;-61
2023/03/30 03:11:22;;;;;;;63.35;35.83;;;;;;;;;;6280268;22;20536;-59
2023/03/30 03:13:50;;;;;;;67.40;36.10;;;;;;;;;;6280764;22;20019;-61
2023/03/30 03:16:17;;;;;;;68.97;37.08;;;;;;;;;;6280738;22;20043;-60
2023/03/30 03:19:04;;;;;;;69.78;37.67;;;;;;;;;;6308137;22;20068;-61
2023/03/30 03:21:32;;;;;;;65.47;37.50;;;;;;;;;;6280649;22;20333;-60
2023/03/30 03:24:00;;;;;;;67.43;35.75;;;;;;;;;;6308031;22;20041;-60
2023/03/30 03:26:47;;;;;;;42.85;25.08;;;;;;;;;;6308096;22;20472;-60
2023/03/30 03:29:16;;;;;;;57.25;31.50;;;;;;;;;;6280726;22;20038;-59
2023/03/30 03:31:43;;;;;;;40.50;22.45;;;;;;;;;;6280453;22;20023;-60
2023/03/30 03:34:11;;;;;;;44.97;23.98;;;;;;;;;;6280242;22;20068;-60
2023/03/30 03:36:53;;;;;;;53.63;28.48;;;;;;;;;;6280499;22;20026;-60
2023/03/30 03:39:24;;;;;;;58.10;32.10;;;;;;;;;;6280328;22;20608;-60
2023/03/30 03:41:59;;;;;;;54.03;29.23;;;;;;;;;;6280055;22;20129;-61
2023/03/30 03:44:26;;;;;;;51.55;28.45;;;;;;;;;;6280741;22;20051;-60
2023/03/30 03:46:54;;;;;;;63.03;31.77;;;;;;;;;;6280232;22;20030;-60
2023/03/30 03:49:22;;;;;;;59.47;30.98;;;;;;;;;;6280203;22;20019;-59
2023/03/30 03:51:49;;;;;;;53.65;28.48;;;;;;;;;;6280439;22;20088;-60
2023/03/30 03:54:17;;;;;;;54.90;29.75;;;;;;;;;;6279577;22;20069;-60
2023/03/30 03:56:47;;;;;;;50.88;27.67;;;;;;;;;;6280559;22;20026;-60
2023/03/30 03:59:14;;;;;;;54.50;29.48;;;;;;;;;;6280239;22;20117;-61
2023/03/30 04:01:42;;;;;;;45.80;26.30;;;;;;;;;;6280243;22;20478;-59
2023/03/30 04:04:09;;;;;;;47.13;25.00;;;;;;;;;;6280402;22;20516;-60
2023/03/30 04:06:39;;;;;;;54.45;26.38;;;;;;;;;;6307627;22;20330;-59
2023/03/30 04:09:07;;;;;;;52.25;26.75;;;;;;;;;;6280281;22;20043;-60
2023/03/30 04:11:55;;;;;;;51.88;26.98;;;;;;;;;;6306797;22;20323;-59
2023/03/30 04:14:43;;;;;;;48.50;25.35;;;;;;;;;;6285727;22;20023;-59
2023/03/30 04:17:10;;;;;;;44.75;22.80;;;;;;;;;;6307631;22;20388;-60
2023/03/30 04:19:38;;;;;;;45.40;22.90;;;;;;;;;;6307373;22;20057;-59
2023/03/30 04:22:40;;;;;;;49.33;24.42;;;;;;;;;;6279417;22;20341;-60
2023/03/30 04:25:40;;;;;;;39.05;20.52;;;;;;;;;;6238912;22;20178;-60
2023/03/30 04:28:33;;;;;;;37.70;21.02;;;;;;;;;;6279746;22;20098;-60
2023/03/30 04:31:18;;;;;;;31.40;17.60;;;;;;;;;;6279833;22;20015;-59
2023/03/30 04:34:08;;;;;;;34.28;18.88;;;;;;;;;;6242363;22;20023;-59
2023/03/30 04:36:44;;;;;;;32.53;16.95;;;;;;;;;;6306222;22;20022;-60
2023/03/30 04:39:37;;;;;;;23.63;13.05;;;;;;;;;;6306746;22;20560;-60
2023/03/30 04:42:29;;;;;;;53.72;23.55;;;;;;;;;;6306795;22;20030;-60
2023/03/30 04:45:19;;;;;;;54.25;25.48;;;;;;;;;;6306565;22;20022;-59
2023/03/30 04:47:59;;;;;;;32.85;18.42;;;;;;;;;;6307709;22;20446;-61
2023/03/30 04:50:46;;;;;;;29.60;15.02;;;;;;;;;;6307483;22;20055;-60
2023/03/30 04:53:34;;;;;;;29.75;16.58;;;;;;;;;;6279834;22;20023;-60
2023/03/30 04:56:36;;;;;;;29.33;17.10;;;;;;;;;;6306266;22;20019;-59
2023/03/30 04:59:10;;;;;;;28.73;16.67;;;;;;;;;;6307088;22;20027;-60
2023/03/30 05:01:56;;;;;;;32.25;17.73;;;;;;;;;;6307025;22;20034;-60
2023/03/30 05:04:44;;;;;;;41.67;17.00;;;;;;;;;;6279534;22;20043;-59
2023/03/30 05:07:41;;;;;;;29.90;17.35;;;;;;;;;;6306676;22;20035;-60
2023/03/30 05:10:20;;;;;;;28.98;16.48;;;;;;;;;;6279612;22;20019;-60
2023/03/30 05:13:07;;;;;;;29.48;17.95;;;;;;;;;;6305165;22;20077;-60
2023/03/30 05:15:52;;;;;;;29.92;18.75;;;;;;;;;;6279742;22;20019;-59
2023/03/30 05:18:38;;;;;;;42.75;20.88;;;;;;;;;;6306980;22;20029;-60
2023/03/30 05:21:14;;;;;;;39.95;23.77;;;;;;;;;;6306927;22;20019;-59
2023/03/30 05:24:17;;;;;;;48.40;28.67;;;;;;;;;;6182526;23;20071;-59
2023/03/30 05:27:06;;;;;;;48.58;27.67;;;;;;;;;;6275298;22;20089;-60
2023/03/30 05:29:52;;;;;;;;;;;;;;;;;;6307805;22;20054;-61
2023/03/30 05:32:34;;;;;;;31.85;19.65;;;;;;;;;;6307213;22;19915;-61
2023/03/30 05:35:22;;;;;;;28.17;19.33;;;;;;;;;;6305792;22;20396;-61
2023/03/30 05:38:22;;;;;;;27.83;18.42;;;;;;;;;;6283628;22;20084;-61
2023/03/30 05:41:09;;;;;;;31.13;21.10;;;;;;;;;;6306971;22;20030;-61
2023/03/30 05:43:42;;;;;;;31.48;19.48;;;;;;;;;;6306690;22;20102;-61
2023/03/30 05:46:21;;;;;;;32.05;20.08;;;;;;;;;;6307130;22;20022;-61
2023/03/30 05:49:16;;;;;;;29.48;21.13;;;;;;;;;;6279297;22;20015;-61
2023/03/30 05:52:02;;;;;;;31.85;21.38;;;;;;;;;;6306638;22;20033;-61
2023/03/30 05:54:50;;;;;;;34.67;20.17;;;;;;;;;;6243937;22;20023;-61
2023/03/30 05:57:32;;;;;;;29.25;19.95;;;;;;;;;;6279248;22;20022;-60
2023/03/30 06:00:24;;;;;;;25.63;17.65;;;;;;;;;;6290103;22;20023;-61
2023/03/30 06:03:04;;;;;;;25.50;17.60;;;;;;;;;;6279229;22;20046;-60
2023/03/30 06:05:34;;;;;;;22.10;16.38;;;;;;;;;;6279342;22;20019;-61
2023/03/30 06:08:04;;;;;;;23.40;15.20;;;;;;;;;;6279381;22;20510;-60
2023/03/30 06:10:31;;;;;;;20.10;14.50;;;;;;;;;;6279091;22;20019;-60
2023/03/30 06:12:58;;;;;;;20.45;14.25;;;;;;;;;;6278785;22;20331;-60
2023/03/30 06:15:46;;;;;;;16.77;13.25;;;;;;;;;;6306014;22;20477;-60
2023/03/30 06:18:20;;;;;;;18.77;13.18;;;;;;;;;;6306547;22;20011;-60
2023/03/30 06:21:01;;;;;;;18.67;12.52;;;;;;;;;;6279364;22;20023;-60
2023/03/30 06:23:29;;;;;;;18.15;13.23;;;;;;;;;;6279352;22;20015;-60
2023/03/30 06:26:02;;;;;;;20.60;13.35;;;;;;;;;;6279131;22;20031;-60
2023/03/30 06:28:32;;;;;;;21.30;14.13;;;;;;;;;;6279072;22;20028;-60
2023/03/30 06:31:01;;;;;;;19.50;14.70;;;;;;;;;;6279261;22;20089;-61
2023/03/30 06:33:30;;;;;;;18.77;14.35;;;;;;;;;;6279361;22;20023;-61
2023/03/30 06:36:00;;;;;;;18.30;14.35;;;;;;;;;;6279092;22;20380;-61
2023/03/30 06:38:28;;;;;;;20.42;14.35;;;;;;;;;;6279154;22;20043;-60
2023/03/30 06:40:56;;;;;;;20.73;14.23;;;;;;;;;;6279398;22;20101;-61
2023/03/30 06:43:26;;;;;;;20.65;13.45;;;;;;;;;;6279174;22;20023;-61
2023/03/30 06:46:07;;;;;;;17.77;13.50;;;;;;;;;;6279686;22;20019;-61
2023/03/30 06:48:35;;;;;;;16.50;13.25;;;;;;;;;;6308309;22;20020;-61
2023/03/30 06:51:21;;;;;;;16.75;12.88;;;;;;;;;;6308414;22;20652;-61
2023/03/30 06:53:49;;;;;;;17.45;15.02;;;;;;;;;;6280990;22;20084;-62
2023/03/30 06:56:16;;;;;;;18.75;14.10;;;;;;;;;;6280909;22;20094;-61
2023/03/30 06:59:02;;;;;;;21.42;15.88;;;;;;;;;;6281011;22;20042;-61
2023/03/30 07:01:30;;;;;;;19.02;14.70;;;;;;;;;;6280947;22;20039;-61
2023/03/30 07:04:16;;;;;;;22.88;15.63;;;;;;;;;;6308693;22;20034;-61
2023/03/30 07:07:03;;;;;;;20.92;15.20;;;;;;;;;;6307755;22;20094;-61
2023/03/30 07:09:31;;;;;;;22.40;15.73;;;;;;;;;;6280826;22;20074;-60
2023/03/30 07:11:59;;;;;;;20.75;16.25;;;;;;;;;;6280575;22;20025;-61
2023/03/30 07:14:26;;;;;;;23.80;16.85;;;;;;;;;;6281382;22;20015;-61
2023/03/30 07:16:54;;;;;;;21.45;16.30;;;;;;;;;;6280746;22;20019;-60
2023/03/30 07:19:22;;;;;;;23.15;14.85;;;;;;;;;;6280630;22;20015;-60
2023/03/30 07:21:49;;;;;;;25.23;15.85;;;;;;;;;;6280592;22;20019;-60
2023/03/30 07:24:20;;;;;;;20.83;14.27;;;;;;;;;;6280633;22;20047;-61
2023/03/30 07:26:48;;;;;;;16.67;12.68;;;;;;;;;;6280521;22;20050;-60
2023/03/30 07:29:15;;;;;;;14.60;12.68;;;;;;;;;;6280781;22;20047;-61
2023/03/30 07:31:46;;;;;;;22.58;15.07;;;;;;;;;;6280660;22;20021;-61
2023/03/30 07:34:16;;;;;;;16.20;12.30;;;;;;;;;;6280642;22;20019;-61
2023/03/30 07:36:49;;;;;;;15.55;11.77;;;;;;;;;;6280492;22;20103;-61
2023/03/30 07:39:17;;;;;;;13.60;10.43;;;;;;;;;;6280485;22;20023;-61
2023/03/30 07:41:47;;;;;;;13.23;9.25;;;;;;;;;;6280294;22;20073;-61
2023/03/30 07:44:14;;;;;;;16.33;10.80;;;;;;;;;;6308099;22;20027;-60
2023/03/30 07:46:42;;;;;;;17.83;10.63;;;;;;;;;;6280397;22;20445;-61
2023/03/30 07:49:15;;;;;;;7.07;4.95;;;;;;;;;;6280178;22;20106;-61
2023/03/30 07:51:43;;;;;;;11.45;6.53;;;;;;;;;;6280559;22;20023;-60
2023/03/30 07:54:21;;;;;;;9.27;5.38;;;;;;;;;;6280305;22;20027;-60
2023/03/30 07:56:58;;;;;;;9.80;6.20;;;;;;;;;;6280056;22;20022;-60
2023/03/30 07:59:26;;;;;;;11.30;6.82;;;;;;;;;;6280321;22;20348;-60
2023/03/30 08:02:00;;;;;;;10.93;6.00;;;;;;;;;;6280199;22;20025;-60
2023/03/30 08:04:45;;;;;;;4.93;3.88;;;;;;;;;;6280128;22;20321;-60
2023/03/30 08:07:16;;;;;;;4.82;3.33;;;;;;;;;;6280520;22;20019;-61
2023/03/30 08:09:45;;;;;;;6.15;3.85;;;;;;;;;;6280034;22;20449;-60
2023/03/30 08:12:13;;;;;;;8.15;4.38;;;;;;;;;;6280301;22;20023;-59
2023/03/30 08:14:40;;;;;;;7.78;4.88;;;;;;;;;;6280707;22;20078;-61
2023/03/30 08:17:08;;;;;;;6.10;4.22;;;;;;;;;;6307582;22;20046;-61
2023/03/30 08:19:35;;;;;;;5.10;3.83;;;;;;;;;;6307329;22;20016;-61
2023/03/30 08:22:03;;;;;;;8.32;5.10;;;;;;;;;;6307419;22;20034;-60
2023/03/30 08:24:30;;;;;;;6.47;4.05;;;;;;;;;;6307367;22;20019;-61
2023/03/30 08:26:58;;;;;;;8.15;4.40;;;;;;;;;;6307350;22;20452;-60
2023/03/30 08:29:25;;;;;;;9.95;5.03;;;;;;;;;;6307174;22;20525;-60
2023/03/30 08:31:53;;;;;;;8.65;4.30;;;;;;;;;;6307044;22;20094;-61
2023/03/30 08:34:21;;;;;;;8.00;4.50;;;;;;;;;;6307207;22;20023;-60
2023/03/30 08:36:48;;;;;;;6.72;4.45;;;;;;;;;;6307079;22;20042;-60
2023/03/30 08:39:15;;;;;;;6.43;4.45;;;;;;;;;;6307086;22;20354;-60
2023/03/30 08:41:49;;;;;;;7.20;4.95;;;;;;;;;;6307268;22;20031;-61
2023/03/30 08:44:18;;;;;;;10.68;5.40;;;;;;;;;;6307673;22;20015;-61
2023/03/30 08:46:47;;;;;;;8.02;5.13;;;;;;;;;;6307718;22;20015;-60
2023/03/30 08:49:16;;;;;;;6.82;4.55;;;;;;;;;;6307582;22;20088;-60
2023/03/30 08:51:45;;;;;;;10.20;5.50;;;;;;;;;;6307073;22;20463;-60
2023/03/30 08:54:15;;;;;;;11.52;7.30;;;;;;;;;;6307332;22;20016;-60
2023/03/30 08:57:02;;;;;;;5.75;3.83;;;;;;;;;;6280082;22;20049;-60
2023/03/30 08:59:29;;;;;;;7.50;4.75;;;;;;;;;;6307189;22;20015;-60
2023/03/30 09:02:13;;;;;;;6.68;4.50;;;;;;;;;;6307065;22;20012;-60
2023/03/30 09:04:41;;;;;;;5.80;4.28;;;;;;;;;;6306840;22;20090;-59
2023/03/30 09:07:16;;;;;;;5.70;4.18;;;;;;;;;;6307495;22;20328;-60
2023/03/30 09:09:45;;;;;;;7.35;4.80;;;;;;;;;;6306805;22;20019;-60
2023/03/30 09:12:18;;;;;;;7.40;5.40;;;;;;;;;;6307017;22;20019;-60
2023/03/30 09:14:57;;;;;;;8.73;5.22;;;;;;;;;;6307169;22;20015;-60
2023/03/30 09:17:31;;;;;;;8.43;5.32;;;;;;;;;;6307113;22;20025;-60
2023/03/30 09:20:05;;;;;;;9.05;5.80;;;;;;;;;;6307001;22;20437;-59
2023/03/30 09:22:37;;;;;;;7.95;5.18;;;;;;;;;;6306908;22;20026;-59
2023/03/30 09:25:17;;;;;;;7.35;4.82;;;;;;;;;;6307119;22;20080;-60
2023/03/30 09:27:54;;;;;;;7.57;5.22;;;;;;;;;;6307056;22;20026;-60
2023/03/30 09:30:24;;;;;;;8.32;4.88;;;;;;;;;;6306900;22;20039;-61
2023/03/30 09:33:06;;;;;;;8.38;5.65;;;;;;;;;;6306773;22;20444;-60
2023/03/30 09:35:41;;;;;;;7.00;5.28;;;;;;;;;;6306818;22;20068;-60
2023/03/30 09:38:10;;;;;;;8.65;6.07;;;;;;;;;;6306959;22;20043;-61
2023/03/30 09:40:59;;;;;;;10.98;6.80;;;;;;;;;;6306775;22;20011;-60
2023/03/30 09:43:27;;;;;;;7.30;4.90;;;;;;;;;;6306977;22;20025;-61
2023/03/30 09:45:56;;;;;;;7.40;4.30;;;;;;;;;;6307156;22;20039;-60
2023/03/30 09:48:24;;;;;;;6.47;3.92;;;;;;;;;;6306817;22;20019;-60
2023/03/30 09:50:51;;;;;;;6.95;4.25;;;;;;;;;;6306775;22;20057;-60
2023/03/30 09:53:28;;;;;;;8.02;5.00;;;;;;;;;;6306643;22;20053;-60
2023/03/30 09:56:08;;;;;;;5.35;3.65;;;;;;;;;;6306754;22;20025;-61
2023/03/30 09:58:37;;;;;;;6.05;3.70;;;;;;;;;;6306856;22;20068;-61
2023/03/30 10:01:12;;;;;;;8.73;6.05;;;;;;;;;;6306542;22;20015;-61
2023/03/30 10:03:40;;;;;;;4.47;3.08;;;;;;;;;;6306742;22;20080;-60
2023/03/30 10:06:26;;;;;;;5.43;3.00;;;;;;;;;;6306685;22;20014;-60
2023/03/30 10:08:55;;;;;;;4.30;3.20;;;;;;;;;;6279348;22;20342;-61
2023/03/30 10:11:49;;;;;;;3.50;2.60;;;;;;;;;;6307050;22;20015;-60
2023/03/30 10:14:43;;;;;;;4.32;2.75;;;;;;;;;;6303129;22;20088;-61
2023/03/30 10:17:19;;;;;;;5.03;2.53;;;;;;;;;;6303182;22;20019;-59
2023/03/30 10:19:47;;;;;;;6.03;3.08;;;;;;;;;;6306925;22;20453;-60
2023/03/30 10:22:21;;;;;;;5.82;3.00;;;;;;;;;;6280778;22;20034;-60
2023/03/30 10:24:50;;;;;;;4.30;2.70;;;;;;;;;;6308517;22;20043;-60
2023/03/30 10:27:18;;;;;;;6.90;3.33;;;;;;;;;;6308449;22;20015;-60
2023/03/30 10:29:49;;;;;;;4.55;2.83;;;;;;;;;;6308739;22;20016;-60
2023/03/30 10:32:31;;;;;;;6.05;3.10;;;;;;;;;;6308694;22;20026;-61
2023/03/30 10:35:03;;;;;;;7.70;2.83;;;;;;;;;;6308752;22;20043;-60
2023/03/30 10:37:32;;;;;;;4.18;2.80;;;;;;;;;;6308675;22;20385;-60
2023/03/30 10:40:04;;;;;;;3.33;2.40;;;;;;;;;;6308471;22;20019;-60
2023/03/30 10:42:32;;;;;;;3.35;2.65;;;;;;;;;;6308808;22;20424;-60
2023/03/30 10:45:01;;;;;;;3.03;2.58;;;;;;;;;;6308330;22;20012;-61
2023/03/30 10:47:47;;;;;;;4.28;2.78;;;;;;;;;;6280752;22;20019;-60
2023/03/30 10:50:34;;;;;;;5.25;2.60;;;;;;;;;;6308539;22;20337;-61
2023/03/30 10:53:05;;;;;;;4.68;2.72;;;;;;;;;;6309077;22;20057;-61
2023/03/30 10:55:33;;;;;;;4.22;3.10;;;;;;;;;;6308774;22;20353;-60
2023/03/30 10:58:18;;;;;;;4.63;2.60;;;;;;;;;;6308234;22;20015;-61
2023/03/30 11:01:05;;;;;;;3.30;2.60;;;;;;;;;;6308359;22;20015;-61
2023/03/30 11:03:34;;;;;;;5.03;3.00;;;;;;;;;;6308599;22;20026;-60
2023/03/30 11:06:08;;;;;;;4.28;3.00;;;;;;;;;;6308357;22;20081;-61
2023/03/30 11:08:38;;;;;;;4.68;2.80;;;;;;;;;;6308622;22;20018;-61
2023/03/30 11:11:06;;;;;;;5.78;2.80;;;;;;;;;;6308194;22;20018;-61
2023/03/30 11:13:40;;;;;;;3.80;2.80;;;;;;;;;;6307428;22;20433;-61
2023/03/30 11:16:13;;;;;;;4.10;2.90;;;;;;;;;;6307924;22;20022;-62
2023/03/30 11:18:59;;;;;;;4.57;3.30;;;;;;;;;;6307423;22;20019;-60
2023/03/30 11:21:30;;;;;;;4.50;3.40;;;;;;;;;;6308279;22;20098;-61
2023/03/30 11:24:01;;;;;;;6.00;3.10;;;;;;;;;;6307005;22;20379;-60
2023/03/30 11:26:34;;;;;;;4.60;2.65;;;;;;;;;;6307991;22;20015;-60
2023/03/30 11:29:07;;;;;;;3.58;2.75;;;;;;;;;;6308060;22;20019;-61
2023/03/30 11:31:40;;;;;;;2.58;2.20;;;;;;;;;;6307296;22;20073;-61
2023/03/30 11:34:28;;;;;;;3.80;3.00;;;;;;;;;;6280435;22;20449;-61
2023/03/30 11:37:00;;;;;;;4.47;3.03;;;;;;;;;;6308203;22;20038;-61
2023/03/30 11:39:30;;;;;;;4.03;2.90;;;;;;;;;;6307767;22;20022;-61
2023/03/30 11:42:28;;;;;;;5.35;3.22;;;;;;;;;;6281055;22;20015;-60
2023/03/30 11:44:56;;;;;;;19.02;3.72;;;;;;;;;;6272783;22;20016;-67
2023/03/30 11:47:36;;;;;;;10.27;3.42;;;;;;;;;;6307701;22;20023;-60
2023/03/30 11:50:07;;;;;;;8.57;3.58;;;;;;;;;;6307752;22;20334;-60
2023/03/30 11:52:44;;;;;;;5.18;3.00;;;;;;;;;;6307824;22;20065;-60
2023/03/30 11:55:18;;;;;;;5.50;3.17;;;;;;;;;;6281293;22;20015;-60
2023/03/30 11:57:53;;;;;;;4.97;2.55;;;;;;;;;;6307832;22;20015;-60
2023/03/30 12:00:21;;;;;;;6.88;3.00;;;;;;;;;;6307853;22;20085;-60
2023/03/30 12:02:55;;;;;;;4.82;2.72;;;;;;;;;;6307703;22;20319;-61
2023/03/30 12:05:22;;;;;;;3.40;2.85;;;;;;;;;;6307479;22;20027;-61
2023/03/30 12:08:09;;;;;;;7.15;4.80;;;;;;;;;;6307822;22;20016;-61
2023/03/30 12:10:39;;;;;;;5.93;3.20;;;;;;;;;;6307884;22;20350;-61
2023/03/30 12:13:17;;;;;;;5.63;3.28;;;;;;;;;;6307324;22;20091;-60
2023/03/30 12:15:52;;;;;;;11.68;5.32;;;;;;;;;;6308053;22;20072;-61
2023/03/30 12:18:23;;;;;;;8.30;5.03;;;;;;;;;;6308229;22;20037;-60
2023/03/30 12:20:56;;;;;;;21.33;11.05;;;;;;;;;;6307441;22;20030;-61
2023/03/30 12:23:34;;;;;;;5.13;3.38;;;;;;;;;;6307463;22;20090;-61
2023/03/30 12:26:20;;;;;;;8.80;3.90;;;;;;;;;;6307766;22;20088;-60
2023/03/30 12:28:58;;;;;;;6.35;3.58;;;;;;;;;;6307634;22;20008;-61
2023/03/30 12:31:51;;;;;;;5.10;3.35;;;;;;;;;;6307272;22;20019;-61
2023/03/30 12:34:19;;;;;;;4.72;3.20;;;;;;;;;;6307541;22;20507;-61
2023/03/30 12:37:09;;;;;;;5.43;2.92;;;;;;;;;;6307344;22;20015;-61
2023/03/30 12:39:47;;;;;;;5.00;3.38;;;;;;;;;;6293283;22;20019;-61
2023/03/30 12:42:33;;;;;;;4.47;2.78;;;;;;;;;;6307504;22;20015;-60
2023/03/30 12:45:19;;;;;;;5.40;2.72;;;;;;;;;;6307172;22;20026;-61
2023/03/30 12:47:47;;;;;;;3.85;2.70;;;;;;;;;;6307217;22;20377;-61
2023/03/30 12:50:14;;;;;;;7.10;2.58;;;;;;;;;;6307228;22;20085;-61
2023/03/30 12:52:46;;;;;;;6.15;2.70;;;;;;;;;;6307115;22;20025;-60
2023/03/30 12:55:32;;;;;;;4.95;2.42;;;;;;;;;;6307145;22;20019;-61
2023/03/30 12:58:18;;;;;;;7.18;3.30;;;;;;;;;;6307513;22;20330;-61
2023/03/30 13:00:46;;;;;;;5.55;2.85;;;;;;;;;;6307038;22;20015;-60
2023/03/30 13:03:14;;;;;;;11.23;5.03;;;;;;;;;;6307163;22;20086;-60
2023/03/30 13:05:43;;;;;;;5.10;2.95;;;;;;;;;;6307084;22;20086;-62
2023/03/30 13:08:29;;;;;;;5.18;2.63;;;;;;;;;;6306888;22;20026;-61
2023/03/30 13:11:28;;;;;;;3.53;2.30;;;;;;;;;;6306871;22;20022;-60
2023/03/30 13:13:56;;;;;;;3.92;2.50;;;;;;;;;;6256322;22;20060;-61
2023/03/30 13:16:42;;;;;;;5.85;2.58;;;;;;;;;;6279551;22;20403;-61
2023/03/30 13:19:27;;;;;;;2.45;1.77;;;;;;;;;;6306867;22;20072;-61
2023/03/30 13:21:56;;;;;;;4.93;2.00;;;;;;;;;;6306771;22;20015;-61
2023/03/30 13:24:27;;;;;;;3.08;1.83;;;;;;;;;;6306789;22;20054;-61
2023/03/30 13:27:09;;;;;;;11.70;2.60;;;;;;;;;;6306506;22;20038;-61
2023/03/30 13:29:37;;;;;;;4.50;2.45;;;;;;;;;;6306769;22;20086;-61
2023/03/30 13:32:22;;;;;;;5.25;2.80;;;;;;;;;;6306884;22;20015;-61
2023/03/30 13:34:50;;;;;;;4.60;2.78;;;;;;;;;;6306720;22;20338;-61
2023/03/30 13:37:52;;;;;;;2.35;1.92;;;;;;;;;;6306946;22;20072;-61
2023/03/30 13:40:22;;;;;;;2.72;2.00;;;;;;;;;;6306486;22;20346;-59
2023/03/30 13:43:12;;;;;;;3.85;2.50;;;;;;;;;;6305009;22;20383;-60
2023/03/30 13:45:59;;;;;;;4.07;2.25;;;;;;;;;;6306615;22;20375;-60
2023/03/30 13:48:42;;;;;;;4.60;2.20;;;;;;;;;;6306546;22;20019;-61
2023/03/30 13:51:14;;;;;;;4.55;2.25;;;;;;;;;;6307048;22;20023;-61
2023/03/30 13:53:45;;;;;;;3.33;2.13;;;;;;;;;;6306818;22;20351;-61
2023/03/30 13:56:13;;;;;;;5.05;2.10;;;;;;;;;;6307879;22;20026;-60
2023/03/30 13:58:42;;;;;;;3.25;2.25;;;;;;;;;;6309063;22;20012;-61
2023/03/30 14:01:12;;;;;;;5.15;2.50;;;;;;;;;;6308571;22;20015;-61
2023/03/30 14:03:45;;;;;;;3.65;2.20;;;;;;;;;;6308389;22;20019;-61
2023/03/30 14:06:13;;;;;;;6.45;2.15;;;;;;;;;;6307467;22;20011;-61
2023/03/30 14:08:43;;;;;;;4.13;2.25;;;;;;;;;;6307428;22;20015;-61
2023/03/30 14:11:14;;;;;;;4.80;2.90;;;;;;;;;;6307876;22;20072;-61
2023/03/30 14:13:42;;;;;;;3.63;2.08;;;;;;;;;;6307565;22;20035;-60
2023/03/30 14:16:13;;;;;;;2.85;2.20;;;;;;;;;;6308326;22;20368;-61
2023/03/30 14:18:40;;;;;;;4.22;2.05;;;;;;;;;;6307363;22;20026;-60
2023/03/30 14:21:10;;;;;;;7.07;2.35;;;;;;;;;;6308940;22;20439;-62
2023/03/30 14:23:44;;;;;;;3.35;2.30;;;;;;;;;;6281241;22;20022;-62
2023/03/30 14:26:12;;;;;;;10.40;3.13;;;;;;;;;;6308340;22;20023;-62
2023/03/30 14:28:41;;;;;;;4.78;2.33;;;;;;;;;;6308363;22;20437;-62
2023/03/30 14:31:13;;;;;;;4.10;2.20;;;;;;;;;;6308543;22;20015;-60
2023/03/30 14:33:41;;;;;;;3.60;2.25;;;;;;;;;;6308497;22;20026;-60
2023/03/30 14:36:10;;;;;;;3.13;2.20;;;;;;;;;;6308708;22;20311;-61
2023/03/30 14:38:39;;;;;;;5.10;2.25;;;;;;;;;;6279312;22;20106;-61
2023/03/30 14:41:08;;;;;;;3.50;2.30;;;;;;;;;;6307819;22;20090;-60
2023/03/30 14:43:39;;;;;;;7.00;2.20;;;;;;;;;;6308270;22;20019;-60
2023/03/30 14:46:09;;;;;;;7.35;2.10;;;;;;;;;;6308157;22;20019;-61
2023/03/30 14:48:38;;;;;;;5.22;1.92;;;;;;;;;;6308112;22;20065;-60
2023/03/30 14:51:08;;;;;;;3.33;1.77;;;;;;;;;;6308114;22;20011;-61
2023/03/30 14:53:36;;;;;;;2.88;2.10;;;;;;;;;;6308222;22;20086;-61
2023/03/30 14:56:03;;;;;;;6.35;2.15;;;;;;;;;;6308284;22;20065;-61
2023/03/30 14:58:32;;;;;;;3.60;2.30;;;;;;;;;;6308092;22;20018;-61
2023/03/30 15:01:05;;;;;;;3.67;2.10;;;;;;;;;;6281402;22;20338;-61
2023/03/30 15:03:36;;;;;;;2.25;1.73;;;;;;;;;;6308172;22;20065;-61
2023/03/30 15:06:05;;;;;;;3.08;2.20;;;;;;;;;;6308216;22;20019;-61
2023/03/30 15:08:36;;;;;;;3.42;2.40;;;;;;;;;;6308026;22;20329;-60
2023/03/30 15:11:08;;;;;;;4.28;2.20;;;;;;;;;;6308436;22;20019;-60
2023/03/30 15:13:38;;;;;;;4.88;2.30;;;;;;;;;;6308188;22;20019;-61
2023/03/30 15:16:06;;;;;;;3.72;2.30;;;;;;;;;;6308264;22;20329;-60